Pagina principale
METAR-TAF:

METAR-TAF

Aeroporti :

Aeroporto di Nižnij Novgorod-Strighino

Nižnij Novgorod, Russia

latitudine: 56-19-48N, longitudine: 044-00E, altezza: 78 m

Osservazione

Il bollettino è stato emesso 21 minuti fa, alle 19:00 UTC
Vento calmo
Temperature 15°C
Umidità 82%
Pressione 1019 hPa
Visibilità 10 km o più
nessuna nube inferiore a 1500 m e nessun cumulonembo

METAR: UWGG 101900Z 00000MPS CAVOK 15/12 Q1019 R36R/090070 NOSIG

Ora: 22:21 (19:21 UTC)

Previsione

Il bollettino è stato emesso 2 ore e 31 minuti fa, alle 16:50 UTC
Previsione valida dal 10 alle 18 UTC al 11 alle 18 UTC
Vento 6 kt da ovest/nord-ovest
Visibilità: 6000 m
Nubi sparse ad un'altezza di 2000 ft

TAF: UWGG 101650Z 1018/1118 29003MPS 6000 SCT020 TX26/1112Z TN10/1101Z

Osservazioni e previsioni meteorologiche di più di 4000 aeroporti (messaggi METAR e TAF).

Le stazioni disponibili sono rappresentate dai dischi gialli e rossi sulla carta.

Puntare il mouse per vedere il nome della stazione.

Clicca sopra per visualizzare le osservazioni e previsioni meteorologiche.

Per cambiare la mappa : fare clic sui pulsanti verdi con una croce nera per ingrandire, il pulsante verde con un trattino per diminuire, o sulla freccia verde per le mappe adiacenti.


METAR-TAF: